Time;durP1;ratioP1;P1;durP2;ratioP2;P2;SDS_P1;SDS_P2;PMS_P1;PMS_P2;Temp;Humidity;BMP_temperature;BMP_pressure;BME280_temperature;BME280_humidity;BME280_pressure;Samples;Min_cycle;Max_cycle;Signal;HPM_P1;HPM_P2
2022/01/10 00:01:33;;;;;;;;;;;3.60;99.90;;;;;;5073645;28;19915;-46
2022/01/10 00:03:59;;;;;;;;;;;3.60;99.90;;;;;;5068164;28;19921;-46
2022/01/10 00:06:24;;;;;;;;;;;3.50;99.90;;;;;;5052830;28;19912;-47
2022/01/10 00:08:50;;;;;;;;;;;3.50;99.90;;;;;;5053620;28;19909;-46
2022/01/10 00:11:15;;;;;;;;;;;3.50;99.90;;;;;;5052786;28;19916;-46
2022/01/10 00:13:41;;;;;;;;;;;3.50;99.90;;;;;;5053369;28;19909;-46
2022/01/10 00:16:06;;;;;;;;;;;3.50;99.90;;;;;;5053364;28;20000;-47
2022/01/10 00:18:32;;;;;;;;;;;3.50;99.90;;;;;;5052720;28;19964;-48
2022/01/10 00:20:57;;;;;;;;;;;3.50;99.90;;;;;;5053438;28;19909;-46
2022/01/10 00:23:22;;;;;;;;;;;3.50;99.90;;;;;;5053168;28;19916;-46
2022/01/10 00:25:48;;;;;;;;;;;3.50;99.90;;;;;;5052806;28;19913;-48
2022/01/10 00:28:13;;;;;;;;;;;3.50;99.90;;;;;;5053344;28;19909;-46
2022/01/10 00:30:39;;;;;;;;;;;3.40;99.90;;;;;;5053284;28;19908;-47
2022/01/10 00:33:04;;;;;;;;;;;3.50;99.90;;;;;;5054230;28;19909;-47
2022/01/10 00:35:30;;;;;;;;;;;3.50;99.90;;;;;;5073135;28;20304;-46
2022/01/10 00:37:55;;;;;;;;;;;3.50;99.90;;;;;;5072514;28;20462;-46
2022/01/10 00:40:21;;;;;;;;;;;3.40;99.90;;;;;;5073030;28;19909;-47
2022/01/10 00:42:54;;;;;;;;;;;3.50;99.90;;;;;;5073036;28;19912;-48
2022/01/10 00:45:23;;;;;;;;;;;3.40;99.90;;;;;;5072617;28;20359;-46
2022/01/10 00:47:49;;;;;;;;;;;3.40;99.90;;;;;;5073249;28;20007;-46
2022/01/10 00:50:14;;;;;;;;;;;3.40;99.90;;;;;;5073140;28;19955;-46
2022/01/10 00:52:40;;;;;;;;;;;3.40;99.90;;;;;;5072133;28;19908;-47
2022/01/10 00:55:06;;;;;;;;;;;3.40;99.90;;;;;;5052892;28;20055;-47
2022/01/10 00:57:31;;;;;;;;;;;3.40;99.90;;;;;;5053009;28;19909;-47
2022/01/10 00:59:59;;;;;;;;;;;3.40;99.90;;;;;;5052588;28;19916;-47
2022/01/10 01:02:27;;;;;;;;;;;3.40;99.90;;;;;;5052753;28;19927;-46
2022/01/10 01:04:54;;;;;;;;;;;3.40;99.90;;;;;;5053168;28;19939;-47
2022/01/10 01:07:19;;;;;;;;;;;3.40;99.90;;;;;;5052047;28;19909;-47
2022/01/10 01:09:52;;;;;;;;;;;3.40;99.90;;;;;;5052385;28;19920;-48
2022/01/10 01:12:30;;;;;;;;;;;3.40;99.90;;;;;;5052081;28;19962;-47
2022/01/10 01:15:07;;;;;;;;;;;3.40;99.90;;;;;;5051623;28;20374;-48
2022/01/10 01:17:35;;;;;;;;;;;3.30;99.90;;;;;;5054266;28;19915;-47
2022/01/10 01:20:20;;;;;;;;;;;3.20;99.90;;;;;;5055424;28;20011;-47
2022/01/10 01:25:29;;;;;;;;;;;3.10;99.90;;;;;;5076062;28;20412;-47
2022/01/10 01:27:55;;;;;;;;;;;3.00;99.90;;;;;;5075199;28;19912;-47
2022/01/10 01:30:20;;;;;;;;;;;2.90;99.90;;;;;;5075514;28;19908;-47
2022/01/10 01:32:46;;;;;;;;;;;2.90;99.90;;;;;;5075728;28;19920;-47
2022/01/10 01:35:11;;;;;;;;;;;2.90;99.90;;;;;;5075120;28;19909;-47
2022/01/10 01:37:38;;;;;;;;;;;2.80;99.90;;;;;;5075485;28;20019;-47
2022/01/10 01:40:04;;;;;;;;;;;2.80;99.90;;;;;;5075473;28;20263;-46
2022/01/10 01:42:39;;;;;;;;;;;2.80;99.90;;;;;;5073657;28;19912;-47
2022/01/10 01:45:07;;;;;;;;;;;2.80;99.90;;;;;;5055130;28;19917;-47
2022/01/10 01:47:33;;;;;;;;;;;2.70;99.90;;;;;;5055282;28;19920;-47
2022/01/10 01:49:59;;;;;;;;;;;2.70;99.90;;;;;;5054897;28;20287;-47
2022/01/10 01:52:26;;;;;;;;;;;2.70;99.90;;;;;;5055202;28;19909;-48
2022/01/10 01:54:51;;;;;;;;;;;2.70;99.90;;;;;;5055186;28;20351;-47
2022/01/10 01:57:17;;;;;;;;;;;2.70;99.90;;;;;;5054561;28;19908;-46
2022/01/10 01:59:43;;;;;;;;;;;2.60;99.90;;;;;;5055027;28;20414;-47
2022/01/10 02:02:08;;;;;;;;;;;2.50;99.90;;;;;;5054456;28;19982;-48
2022/01/10 02:04:34;;;;;;;;;;;2.50;99.90;;;;;;5054905;28;20012;-47
2022/01/10 02:06:59;;;;;;;;;;;2.50;99.90;;;;;;5055116;28;20260;-48
2022/01/10 02:09:24;;;;;;;;;;;2.50;99.90;;;;;;5054451;28;19927;-48
2022/01/10 02:11:51;;;;;;;;;;;2.40;99.90;;;;;;5054919;28;20359;-47
2022/01/10 02:14:18;;;;;;;;;;;2.40;99.90;;;;;;5069542;28;19950;-46
2022/01/10 02:16:45;;;;;;;;;;;2.30;99.90;;;;;;5074426;28;19909;-50
2022/01/10 02:19:11;;;;;;;;;;;2.30;99.90;;;;;;5074810;28;19908;-46
2022/01/10 02:21:37;;;;;;;;;;;2.20;99.90;;;;;;5074908;28;19909;-47
2022/01/10 02:24:03;;;;;;;;;;;2.20;99.90;;;;;;5074174;28;19986;-47
2022/01/10 02:26:29;;;;;;;;;;;2.20;99.90;;;;;;5074562;28;20352;-46
2022/01/10 02:28:55;;;;;;;;;;;2.20;99.90;;;;;;5074165;28;19915;-47
2022/01/10 02:31:21;;;;;;;;;;;2.30;99.90;;;;;;5073975;28;19909;-47
2022/01/10 02:33:48;;;;;;;;;;;2.30;99.90;;;;;;5074599;28;19908;-47
2022/01/10 02:38:49;;;;;;;;;;;2.20;99.90;;;;;;5073813;28;19940;-47
2022/01/10 02:41:25;;;;;;;;;;;2.10;99.90;;;;;;5074246;28;20016;-46
2022/01/10 02:43:52;;;;;;;;;;;2.10;99.90;;;;;;5062628;28;19924;-47
2022/01/10 02:46:17;;;;;;;;;;;2.10;99.90;;;;;;5055736;28;19994;-48
2022/01/10 02:48:43;;;;;;;;;;;2.10;99.90;;;;;;5054010;28;19967;-47
2022/01/10 02:51:08;;;;;;;;;;;2.10;99.90;;;;;;5054209;28;19913;-47
2022/01/10 02:53:34;;;;;;;;;;;2.10;99.90;;;;;;5053506;28;19909;-47
2022/01/10 02:55:59;;;;;;;;;;;2.20;99.90;;;;;;5054148;28;19951;-47
2022/01/10 02:58:24;;;;;;;;;;;2.20;99.90;;;;;;5053645;28;20463;-50
2022/01/10 03:00:50;;;;;;;;;;;2.20;99.90;;;;;;5053946;28;20287;-47
2022/01/10 03:03:15;;;;;;;;;;;2.20;99.90;;;;;;5053583;28;20276;-48
2022/01/10 03:05:41;;;;;;;;;;;2.20;99.90;;;;;;5053357;28;19947;-47
2022/01/10 03:08:06;;;;;;;;;;;2.20;99.90;;;;;;5053894;28;19909;-47
2022/01/10 03:10:32;;;;;;;;;;;2.20;99.90;;;;;;5053697;28;19909;-47
2022/01/10 03:12:58;;;;;;;;;;;2.20;99.90;;;;;;5056505;28;19912;-47
2022/01/10 03:15:24;;;;;;;;;;;2.20;99.90;;;;;;5073561;28;20650;-48
2022/01/10 03:17:49;;;;;;;;;;;2.10;99.90;;;;;;5073714;28;19955;-46
2022/01/10 03:20:15;;;;;;;;;;;2.10;99.90;;;;;;5073034;28;19916;-48
2022/01/10 03:22:40;;;;;;;;;;;2.10;99.90;;;;;;5073501;28;19962;-48
2022/01/10 03:25:06;;;;;;;;;;;2.10;99.90;;;;;;5073491;28;19995;-47
2022/01/10 03:27:31;;;;;;;;;;;2.00;99.90;;;;;;5072856;28;19909;-47
2022/01/10 03:29:57;;;;;;;;;;;2.10;99.90;;;;;;5073413;28;19947;-49
2022/01/10 03:32:22;;;;;;;;;;;2.00;99.90;;;;;;5073284;28;19908;-47
2022/01/10 03:34:48;;;;;;;;;;;2.00;99.90;;;;;;5072802;28;19908;-47
2022/01/10 03:37:14;;;;;;;;;;;2.10;99.90;;;;;;5073293;28;19915;-48
2022/01/10 03:39:39;;;;;;;;;;;2.00;99.90;;;;;;5072785;28;19916;-48
2022/01/10 03:42:05;;;;;;;;;;;2.10;99.90;;;;;;5072237;28;19912;-47
2022/01/10 03:44:30;;;;;;;;;;;2.00;99.90;;;;;;5053837;28;20409;-49
2022/01/10 03:46:56;;;;;;;;;;;2.00;99.90;;;;;;5053234;28;19909;-48
2022/01/10 03:49:23;;;;;;;;;;;2.00;99.90;;;;;;5052595;28;19915;-47
2022/01/10 03:51:48;;;;;;;;;;;2.00;99.90;;;;;;5053141;28;19915;-47
2022/01/10 03:54:13;;;;;;;;;;;2.00;99.90;;;;;;5052979;28;19909;-47
2022/01/10 03:56:39;;;;;;;;;;;2.00;99.90;;;;;;5052395;28;20376;-47
2022/01/10 03:59:04;;;;;;;;;;;2.00;99.90;;;;;;5053047;28;20256;-46
2022/01/10 04:01:31;;;;;;;;;;;2.00;99.90;;;;;;5052737;28;19917;-49
2022/01/10 04:03:56;;;;;;;;;;;2.00;99.90;;;;;;5052146;28;19964;-46
2022/01/10 04:06:22;;;;;;;;;;;2.00;99.90;;;;;;5052811;28;19967;-49
2022/01/10 04:08:47;;;;;;;;;;;1.90;99.90;;;;;;5052217;28;20264;-47
2022/01/10 04:11:13;;;;;;;;;;;1.90;99.90;;;;;;5052709;28;20283;-48
2022/01/10 04:13:40;;;;;;;;;;;1.90;99.90;;;;;;5061573;28;19920;-48
2022/01/10 04:16:05;;;;;;;;;;;1.80;99.90;;;;;;5072323;28;19916;-46
2022/01/10 04:18:30;;;;;;;;;;;1.80;99.90;;;;;;5072742;28;19978;-47
2022/01/10 04:20:56;;;;;;;;;;;1.80;99.90;;;;;;5072781;28;19908;-48
2022/01/10 04:23:21;;;;;;;;;;;1.80;99.90;;;;;;5072006;28;20003;-48
2022/01/10 04:25:47;;;;;;;;;;;1.80;99.90;;;;;;5072762;28;19952;-47
2022/01/10 04:28:12;;;;;;;;;;;1.80;99.90;;;;;;5072598;28;20004;-49
2022/01/10 04:30:38;;;;;;;;;;;1.80;99.90;;;;;;5071995;28;19950;-48
2022/01/10 04:33:04;;;;;;;;;;;1.80;99.90;;;;;;5072779;28;19913;-47
2022/01/10 04:35:30;;;;;;;;;;;1.70;99.90;;;;;;5072578;28;19912;-47
2022/01/10 04:37:56;;;;;;;;;;;1.60;99.90;;;;;;5071986;28;20291;-47
2022/01/10 04:40:22;;;;;;;;;;;1.60;99.90;;;;;;5072445;28;19924;-47
2022/01/10 04:42:47;;;;;;;;;;;1.50;99.90;;;;;;5070612;28;19916;-47
2022/01/10 04:45:13;;;;;;;;;;;1.40;99.90;;;;;;5071958;28;19913;-49
2022/01/10 04:47:39;;;;;;;;;;;1.30;99.90;;;;;;5072400;28;19912;-49
2022/01/10 04:52:46;;;;;;;;;;;1.20;99.90;;;;;;5074603;28;19908;-49
2022/01/10 04:55:12;;;;;;;;;;;1.30;99.90;;;;;;5076277;28;19923;-47
2022/01/10 04:57:37;;;;;;;;;;;1.20;99.90;;;;;;5076306;28;19909;-47
2022/01/10 05:00:04;;;;;;;;;;;1.30;99.90;;;;;;5075836;28;20383;-48
2022/01/10 05:02:29;;;;;;;;;;;1.30;99.90;;;;;;5075973;28;19924;-47
2022/01/10 05:04:55;;;;;;;;;;;1.30;99.90;;;;;;5076128;28;19923;-49
2022/01/10 05:07:20;;;;;;;;;;;1.20;99.90;;;;;;5075731;28;19908;-49
2022/01/10 05:09:45;;;;;;;;;;;1.30;99.90;;;;;;5076091;28;19909;-47
2022/01/10 05:12:12;;;;;;;;;;;1.30;99.90;;;;;;5074437;28;19912;-48
2022/01/10 05:14:37;;;;;;;;;;;1.30;99.90;;;;;;5055985;28;19909;-49
2022/01/10 05:17:03;;;;;;;;;;;1.30;99.90;;;;;;5056024;28;20019;-50
2022/01/10 05:19:28;;;;;;;;;;;1.30;99.90;;;;;;5055250;28;19916;-49
2022/01/10 05:21:54;;;;;;;;;;;1.30;99.90;;;;;;5055759;28;19908;-49
2022/01/10 05:24:19;;;;;;;;;;;1.30;99.90;;;;;;5055675;28;19923;-47
2022/01/10 05:26:45;;;;;;;;;;;1.20;99.90;;;;;;5055365;28;19909;-49
2022/01/10 05:29:10;;;;;;;;;;;1.20;99.90;;;;;;5055829;28;19913;-48
2022/01/10 05:31:36;;;;;;;;;;;1.20;99.90;;;;;;5055633;28;20003;-50
2022/01/10 05:34:01;;;;;;;;;;;1.20;99.90;;;;;;5055161;28;19948;-49
2022/01/10 05:36:27;;;;;;;;;;;1.20;99.90;;;;;;5057655;28;20260;-50
2022/01/10 05:38:52;;;;;;;;;;;1.20;99.90;;;;;;5075374;28;20401;-48
2022/01/10 05:41:20;;;;;;;;;;;1.20;99.90;;;;;;5074880;28;19908;-50
2022/01/10 05:43:47;;;;;;;;;;;1.20;99.90;;;;;;5075447;28;19977;-51
2022/01/10 05:46:15;;;;;;;;;;;1.20;99.90;;;;;;5075410;28;19909;-50
2022/01/10 05:48:46;;;;;;;;;;;1.20;99.90;;;;;;5074722;28;20011;-48
2022/01/10 05:51:11;;;;;;;;;;;1.20;99.90;;;;;;5075258;28;19947;-49
2022/01/10 05:53:37;;;;;;;;;;;1.20;99.90;;;;;;5075251;28;20002;-50
2022/01/10 05:56:02;;;;;;;;;;;1.20;99.90;;;;;;5074821;28;19916;-49
2022/01/10 05:58:28;;;;;;;;;;;1.10;99.90;;;;;;5075182;28;19912;-49
2022/01/10 06:00:53;;;;;;;;;;;1.10;99.90;;;;;;5075108;28;19912;-47
2022/01/10 06:03:19;;;;;;;;;;;1.20;99.90;;;;;;5073252;28;19966;-48
2022/01/10 06:05:44;;;;;;;;;;;1.20;99.90;;;;;;5071247;28;19963;-50
2022/01/10 06:08:10;;;;;;;;;;;1.20;99.90;;;;;;5055718;28;19909;-49
2022/01/10 06:10:36;;;;;;;;;;;1.20;99.90;;;;;;5074501;28;19955;-51
2022/01/10 06:13:05;;;;;;;;;;;1.20;99.90;;;;;;5074243;28;19912;-47
2022/01/10 06:15:31;;;;;;;;;;;1.20;99.90;;;;;;5074399;28;19908;-50
2022/01/10 06:17:56;;;;;;;;;;;1.20;99.90;;;;;;5074870;28;19916;-50
2022/01/10 06:20:22;;;;;;;;;;;1.20;99.90;;;;;;5074586;28;19935;-48
2022/01/10 06:22:47;;;;;;;;;;;1.20;99.90;;;;;;5074425;28;19995;-49
2022/01/10 06:25:15;;;;;;;;;;;1.20;99.90;;;;;;5073164;28;19961;-47
2022/01/10 06:27:40;;;;;;;;;;;1.10;99.90;;;;;;5067535;28;19917;-51
2022/01/10 06:30:06;;;;;;;;;;;1.10;99.90;;;;;;5063264;28;19913;-51
2022/01/10 06:32:32;;;;;;;;;;;1.10;99.90;;;;;;5063464;28;20003;-50
2022/01/10 06:34:57;;;;;;;;;;;1.20;99.90;;;;;;5062497;28;19961;-52
2022/01/10 06:37:23;;;;;;;;;;;1.20;99.90;;;;;;5063391;28;19912;-49
2022/01/10 06:39:48;;;;;;;;;;;1.20;99.90;;;;;;5062857;28;19963;-48
2022/01/10 06:42:14;;;;;;;;;;;1.10;99.90;;;;;;5062493;28;19983;-49
2022/01/10 06:44:39;;;;;;;;;;;1.10;99.90;;;;;;5063544;28;20309;-51
2022/01/10 06:47:05;;;;;;;;;;;1.10;99.90;;;;;;5059949;28;19912;-49
2022/01/10 06:49:30;;;;;;;;;;;1.10;99.90;;;;;;5063072;28;19915;-51
2022/01/10 06:51:56;;;;;;;;;;;1.00;99.90;;;;;;5063187;28;19915;-51
2022/01/10 06:54:22;;;;;;;;;;;1.00;99.90;;;;;;5061471;28;19909;-47
2022/01/10 06:56:47;;;;;;;;;;;1.00;99.90;;;;;;5063305;28;19908;-49
2022/01/10 06:59:13;;;;;;;;;;;1.00;99.90;;;;;;5061715;28;19958;-51
2022/01/10 07:01:38;;;;;;;;;;;1.00;99.90;;;;;;5061504;28;20020;-48
2022/01/10 07:04:04;;;;;;;;;;;1.00;99.90;;;;;;5063051;28;19920;-52
2022/01/10 07:06:29;;;;;;;;;;;1.00;99.90;;;;;;5062030;28;20377;-50
2022/01/10 07:08:55;;;;;;;;;;;1.00;99.90;;;;;;5062171;28;19954;-48
2022/01/10 07:11:20;;;;;;;;;;;1.00;99.90;;;;;;5063228;28;20375;-51
2022/01/10 07:13:46;;;;;;;;;;;1.00;99.90;;;;;;5060114;28;19975;-51
2022/01/10 07:16:12;;;;;;;;;;;1.00;99.90;;;;;;5062131;28;19909;-48
2022/01/10 07:18:38;;;;;;;;;;;1.00;99.90;;;;;;5060956;28;20003;-50
2022/01/10 07:21:03;;;;;;;;;;;1.00;99.90;;;;;;5053248;28;19999;-51
2022/01/10 07:23:29;;;;;;;;;;;0.90;99.90;;;;;;5053565;28;19917;-51
2022/01/10 07:25:55;;;;;;;;;;;0.90;99.90;;;;;;5071386;28;20340;-51
2022/01/10 07:28:20;;;;;;;;;;;0.90;99.90;;;;;;5054951;28;19943;-52
2022/01/10 07:30:46;;;;;;;;;;;0.90;99.90;;;;;;5053057;28;20291;-52
2022/01/10 07:33:12;;;;;;;;;;;0.90;99.90;;;;;;5052605;28;20019;-51
2022/01/10 07:35:37;;;;;;;;;;;0.90;99.90;;;;;;5069886;28;19955;-51
2022/01/10 07:38:03;;;;;;;;;;;0.90;99.90;;;;;;5073688;28;20370;-52
2022/01/10 07:40:28;;;;;;;;;;;1.00;99.90;;;;;;5073448;28;19913;-53
2022/01/10 07:42:54;;;;;;;;;;;1.00;99.90;;;;;;5073833;28;20384;-52
2022/01/10 07:45:19;;;;;;;;;;;1.00;99.90;;;;;;5071691;28;19920;-52
2022/01/10 07:47:45;;;;;;;;;;;1.00;99.90;;;;;;5072730;28;19912;-51
2022/01/10 07:50:11;;;;;;;;;;;1.10;99.90;;;;;;5073876;28;19938;-54
2022/01/10 07:52:36;;;;;;;;;;;1.00;99.90;;;;;;5073718;28;19930;-51
2022/01/10 07:55:02;;;;;;;;;;;1.00;99.90;;;;;;5061936;28;19916;-52
2022/01/10 07:57:28;;;;;;;;;;;1.00;99.90;;;;;;5053553;28;19917;-52
2022/01/10 07:59:53;;;;;;;;;;;1.00;99.90;;;;;;5053559;28;19978;-52
2022/01/10 08:02:21;;;;;;;;;;;1.00;99.90;;;;;;5052837;28;19909;-51
2022/01/10 08:04:47;;;;;;;;;;;1.00;99.90;;;;;;5060942;28;20027;-52
2022/01/10 08:07:12;;;;;;;;;;;1.00;99.90;;;;;;5073626;28;19956;-51
2022/01/10 08:09:38;;;;;;;;;;;1.00;99.90;;;;;;5073049;28;19909;-51
2022/01/10 08:12:04;;;;;;;;;;;0.90;99.90;;;;;;5072987;28;19987;-52
2022/01/10 08:14:30;;;;;;;;;;;0.90;99.90;;;;;;5072330;28;20264;-52
2022/01/10 08:16:56;;;;;;;;;;;0.80;99.90;;;;;;5073042;28;20002;-52
2022/01/10 08:19:21;;;;;;;;;;;0.80;99.90;;;;;;5073508;28;19909;-52
2022/01/10 08:21:47;;;;;;;;;;;0.80;99.90;;;;;;5073468;28;19915;-52
2022/01/10 08:24:12;;;;;;;;;;;0.80;99.90;;;;;;5069702;28;19920;-53
2022/01/10 08:26:40;;;;;;;;;;;0.80;99.90;;;;;;5068702;28;19948;-52
2022/01/10 08:29:06;;;;;;;;;;;0.80;99.90;;;;;;5058751;28;20359;-52
2022/01/10 08:31:31;;;;;;;;;;;0.90;99.90;;;;;;5072316;28;19919;-54
2022/01/10 08:33:57;;;;;;;;;;;1.00;99.90;;;;;;5073415;28;19909;-52
2022/01/10 08:36:22;;;;;;;;;;;1.00;99.90;;;;;;5063908;28;19939;-51
2022/01/10 08:38:48;;;;;;;;;;;1.00;99.90;;;;;;5054087;28;19913;-52
2022/01/10 08:41:13;;;;;;;;;;;1.00;99.90;;;;;;5053320;28;19916;-52
2022/01/10 08:43:39;;;;;;;;;;;1.00;99.90;;;;;;5052485;28;19916;-53
2022/01/10 08:46:04;;;;;;;;;;;1.10;99.90;;;;;;5053321;28;19996;-53
2022/01/10 08:48:29;;;;;;;;;;;1.10;99.90;;;;;;5060877;28;19916;-53
2022/01/10 08:50:55;;;;;;;;;;;1.10;99.90;;;;;;5072370;28;20331;-52
2022/01/10 08:53:20;;;;;;;;;;;1.10;99.90;;;;;;5073121;28;19908;-52
2022/01/10 08:55:47;;;;;;;;;;;1.20;99.90;;;;;;5073060;28;19908;-52
2022/01/10 08:58:13;;;;;;;;;;;1.20;99.90;;;;;;5066758;28;19936;-52
2022/01/10 09:00:39;;;;;;;;;;;1.20;99.90;;;;;;5053971;28;19952;-54
2022/01/10 09:03:05;;;;;;;;;;;1.20;99.90;;;;;;5052800;28;19975;-52
2022/01/10 09:05:32;;;;;;;;;;;1.30;99.90;;;;;;5052530;28;19912;-52
2022/01/10 09:07:58;;;;;;;;;;;1.30;99.90;;;;;;5055978;28;20011;-51
2022/01/10 09:10:25;;;;;;;;;;;1.30;99.90;;;;;;5072998;28;19938;-52
2022/01/10 09:12:51;;;;;;;;;;;1.40;99.90;;;;;;5072318;28;19935;-52
2022/01/10 09:15:16;;;;;;;;;;;1.40;99.90;;;;;;5073020;28;20344;-53
2022/01/10 09:17:42;;;;;;;;;;;1.40;99.90;;;;;;5071811;28;19915;-52
2022/01/10 09:20:08;;;;;;;;;;;1.50;99.90;;;;;;5052427;28;19923;-53
2022/01/10 09:22:33;;;;;;;;;;;1.50;99.90;;;;;;5052728;28;19909;-53
2022/01/10 09:25:00;;;;;;;;;;;1.60;99.90;;;;;;5052806;28;19917;-53
2022/01/10 09:27:25;;;;;;;;;;;1.60;99.90;;;;;;5052714;28;19909;-53
2022/01/10 09:29:51;;;;;;;;;;;1.70;99.90;;;;;;5072840;28;20267;-52
2022/01/10 09:32:16;;;;;;;;;;;1.70;99.90;;;;;;5072305;28;19995;-54
2022/01/10 09:34:42;;;;;;;;;;;1.80;99.90;;;;;;5072576;28;20050;-54
2022/01/10 09:37:07;;;;;;;;;;;1.80;99.90;;;;;;5072513;28;19908;-52
2022/01/10 09:39:33;;;;;;;;;;;1.90;99.90;;;;;;5067947;28;19927;-52
2022/01/10 09:41:59;;;;;;;;;;;2.00;99.90;;;;;;5076053;28;19986;-51
2022/01/10 09:44:24;;;;;;;;;;;1.90;99.90;;;;;;5075406;28;19924;-52
2022/01/10 09:46:50;;;;;;;;;;;2.00;99.90;;;;;;5074511;28;19908;-51
2022/01/10 09:49:16;;;;;;;;;;;2.10;99.90;;;;;;5057122;28;20389;-52
2022/01/10 09:51:42;;;;;;;;;;;2.20;99.90;;;;;;5056192;28;19917;-52
2022/01/10 09:54:07;;;;;;;;;;;2.20;99.90;;;;;;5064516;28;19934;-52
2022/01/10 09:56:33;;;;;;;;;;;2.20;99.90;;;;;;5063583;28;19916;-52
2022/01/10 09:58:59;;;;;;;;;;;2.30;99.90;;;;;;5064842;28;20426;-52
2022/01/10 10:01:25;;;;;;;;;;;2.30;99.90;;;;;;5062343;28;19913;-52
2022/01/10 10:03:51;;;;;;;;;;;2.40;99.90;;;;;;5063800;28;19924;-51
2022/01/10 10:06:17;;;;;;;;;;;2.40;99.90;;;;;;5064565;28;19919;-52
2022/01/10 10:08:43;;;;;;;;;;;2.50;99.90;;;;;;5059426;28;19923;-52
2022/01/10 10:11:09;;;;;;;;;;;2.50;99.90;;;;;;5064125;28;20388;-52
2022/01/10 10:13:45;;;;;;;;;;;2.50;99.90;;;;;;5069608;28;19912;-52
2022/01/10 10:16:13;;;;;;;;;;;2.60;99.90;;;;;;5061270;28;19963;-52
2022/01/10 10:18:39;;;;;;;;;;;2.70;99.90;;;;;;5054636;28;20326;-51
2022/01/10 10:21:09;;;;;;;;;;;2.70;99.90;;;;;;5054934;28;19919;-51
2022/01/10 10:23:35;;;;;;;;;;;2.80;99.90;;;;;;5054065;28;19920;-50
2022/01/10 10:26:00;;;;;;;;;;;2.90;99.90;;;;;;5054946;28;19916;-49
2022/01/10 10:28:26;;;;;;;;;;;3.00;99.90;;;;;;5054736;28;20340;-55
2022/01/10 10:30:56;;;;;;;;;;;3.00;99.90;;;;;;5053933;28;19913;-49
2022/01/10 10:33:23;;;;;;;;;;;3.10;99.90;;;;;;5054841;28;20019;-51
2022/01/10 10:35:56;;;;;;;;;;;3.20;99.90;;;;;;5053806;28;19920;-52
2022/01/10 10:38:21;;;;;;;;;;;3.30;99.90;;;;;;5054609;28;19909;-49
2022/01/10 10:40:47;;;;;;;;;;;3.40;99.90;;;;;;5054324;28;19909;-52
2022/01/10 10:43:12;;;;;;;;;;;3.50;99.90;;;;;;5053665;28;20371;-50
2022/01/10 10:45:38;;;;;;;;;;;3.50;99.90;;;;;;5054166;28;19912;-51
2022/01/10 10:48:06;;;;;;;;;;;3.60;99.90;;;;;;5054470;28;19909;-48
2022/01/10 10:50:41;;;;;;;;;;;3.60;99.90;;;;;;5053311;28;19978;-50
2022/01/10 10:53:09;;;;;;;;;;;3.70;99.90;;;;;;5055863;28;19913;-50
2022/01/10 10:55:36;;;;;;;;;;;3.80;99.90;;;;;;5065212;28;19975;-49
2022/01/10 10:58:02;;;;;;;;;;;3.80;99.90;;;;;;5061775;28;20012;-49
2022/01/10 11:00:27;;;;;;;;;;;3.90;99.90;;;;;;5062630;28;20003;-50
2022/01/10 11:02:53;;;;;;;;;;;3.90;99.90;;;;;;5073339;28;19928;-50
2022/01/10 11:05:18;;;;;;;;;;;4.00;99.90;;;;;;5059609;28;19917;-49
2022/01/10 11:07:44;;;;;;;;;;;4.10;99.90;;;;;;5053599;28;20370;-51
2022/01/10 11:10:10;;;;;;;;;;;4.20;99.90;;;;;;5054050;28;19909;-52
2022/01/10 11:12:38;;;;;;;;;;;4.30;99.90;;;;;;5052946;28;20410;-51
2022/01/10 11:15:04;;;;;;;;;;;4.40;99.90;;;;;;5054140;28;19909;-48
2022/01/10 11:17:29;;;;;;;;;;;4.50;99.90;;;;;;5064767;28;19908;-51
2022/01/10 11:20:13;;;;;;;;;;;4.60;99.90;;;;;;5072754;28;20003;-48
2022/01/10 11:22:41;;;;;;;;;;;4.70;99.90;;;;;;5073382;28;19931;-47
2022/01/10 11:25:29;;;;;;;;;;;4.80;99.90;;;;;;5072079;28;19925;-47
2022/01/10 11:28:00;;;;;;;;;;;4.90;99.90;;;;;;5065262;28;19912;-50
2022/01/10 11:30:31;;;;;;;;;;;5.00;99.90;;;;;;5073680;28;19912;-52
2022/01/10 11:33:04;;;;;;;;;;;5.00;99.90;;;;;;5072716;28;19913;-51
2022/01/10 11:35:38;;;;;;;;;;;5.10;99.90;;;;;;5067958;28;19935;-48
2022/01/10 11:38:15;;;;;;;;;;;5.20;99.90;;;;;;5070278;28;20370;-48
2022/01/10 11:40:40;;;;;;;;;;;5.30;99.90;;;;;;5063119;28;19909;-51
2022/01/10 11:43:06;;;;;;;;;;;5.30;99.90;;;;;;5072937;28;20014;-47
2022/01/10 11:45:40;;;;;;;;;;;5.40;99.90;;;;;;5055910;28;19913;-51
2022/01/10 11:48:11;;;;;;;;;;;5.50;99.90;;;;;;5052706;28;20268;-50
2022/01/10 11:50:40;;;;;;;;;;;5.60;99.90;;;;;;5052798;28;19908;-49
2022/01/10 11:53:06;;;;;;;;;;;5.70;99.90;;;;;;5056061;28;20279;-49
2022/01/10 11:55:32;;;;;;;;;;;5.70;99.90;;;;;;5060819;28;20351;-48
2022/01/10 11:58:02;;;;;;;;;;;5.80;99.90;;;;;;5063793;28;19940;-52
2022/01/10 12:00:34;;;;;;;;;;;5.90;99.90;;;;;;5058231;28;19925;-50
2022/01/10 12:02:59;;;;;;;;;;;6.00;99.90;;;;;;5063031;28;19932;-48
2022/01/10 12:05:25;;;;;;;;;;;6.00;99.90;;;;;;5063933;28;19920;-48
2022/01/10 12:07:51;;;;;;;;;;;6.10;99.90;;;;;;5057188;28;19909;-51
2022/01/10 12:10:17;;;;;;;;;;;6.20;99.90;;;;;;5053986;28;19967;-50
2022/01/10 12:12:43;;;;;;;;;;;6.20;99.90;;;;;;5072438;28;19951;-51
2022/01/10 12:15:08;;;;;;;;;;;6.30;99.90;;;;;;5063462;28;20272;-49
2022/01/10 12:17:36;;;;;;;;;;;6.40;99.90;;;;;;5060801;28;20249;-48
2022/01/10 12:20:02;;;;;;;;;;;6.50;99.90;;;;;;5063293;28;20310;-49
2022/01/10 12:22:28;;;;;;;;;;;6.50;99.90;;;;;;5059263;28;20379;-51
2022/01/10 12:24:53;;;;;;;;;;;6.60;99.90;;;;;;5061114;28;19921;-50
2022/01/10 12:27:19;;;;;;;;;;;6.70;99.90;;;;;;5052877;28;19916;-48
2022/01/10 12:29:45;;;;;;;;;;;6.70;99.90;;;;;;5052652;28;20310;-50
2022/01/10 12:32:11;;;;;;;;;;;6.80;99.90;;;;;;5060613;28;20007;-48
2022/01/10 12:34:38;;;;;;;;;;;6.80;99.90;;;;;;5057993;28;19912;-52
2022/01/10 12:37:04;;;;;;;;;;;6.90;99.90;;;;;;5060655;28;19939;-52
2022/01/10 12:39:30;;;;;;;;;;;7.00;99.90;;;;;;5062420;28;20422;-52
2022/01/10 12:41:57;;;;;;;;;;;7.00;99.90;;;;;;5062990;28;20260;-50
2022/01/10 12:44:24;;;;;;;;;;;7.00;99.90;;;;;;5060893;28;20442;-52
2022/01/10 12:46:49;;;;;;;;;;;7.10;99.90;;;;;;5062735;28;19956;-51
2022/01/10 12:49:15;;;;;;;;;;;7.10;99.90;;;;;;5051549;28;19913;-51
2022/01/10 12:51:43;;;;;;;;;;;7.10;99.90;;;;;;5050778;28;20287;-51
2022/01/10 12:54:14;;;;;;;;;;;7.20;99.90;;;;;;5052711;28;19963;-49
2022/01/10 12:56:39;;;;;;;;;;;7.20;99.90;;;;;;5059455;28;20291;-47
2022/01/10 12:59:05;;;;;;;;;;;7.30;99.90;;;;;;5072539;28;19916;-51
2022/01/10 13:01:30;;;;;;;;;;;7.30;99.90;;;;;;5060893;28;19924;-52
2022/01/10 13:03:57;;;;;;;;;;;7.30;99.90;;;;;;5051363;28;19932;-51
2022/01/10 13:06:25;;;;;;;;;;;7.40;99.90;;;;;;5052365;28;19947;-50
2022/01/10 13:08:51;;;;;;;;;;;7.40;99.90;;;;;;5051938;28;19909;-50
2022/01/10 13:11:18;;;;;;;;;;;7.40;99.90;;;;;;5054951;28;20421;-52
2022/01/10 13:13:45;;;;;;;;;;;7.50;99.90;;;;;;5054614;28;19916;-51
2022/01/10 13:16:23;;;;;;;;;;;7.60;99.90;;;;;;5056037;28;19909;-52
2022/01/10 13:18:53;;;;;;;;;;;7.60;99.90;;;;;;5055158;28;19913;-51
2022/01/10 13:21:28;;;;;;;;;;;7.60;99.90;;;;;;5056980;28;20017;-51
2022/01/10 13:24:06;;;;;;;;;;;7.60;99.90;;;;;;5055831;28;19991;-51
2022/01/10 13:26:32;;;;;;;;;;;7.60;99.90;;;;;;5054713;28;19947;-50
2022/01/10 13:28:58;;;;;;;;;;;7.60;99.90;;;;;;5055799;28;19993;-51
2022/01/10 13:31:36;;;;;;;;;;;7.60;99.90;;;;;;5055129;28;19917;-52
2022/01/10 13:34:01;;;;;;;;;;;7.60;99.90;;;;;;5062681;28;19913;-50
2022/01/10 13:36:27;;;;;;;;;;;7.60;99.90;;;;;;5073957;28;20035;-51
2022/01/10 13:38:52;;;;;;;;;;;7.60;99.90;;;;;;5073299;28;19908;-51
2022/01/10 13:41:18;;;;;;;;;;;7.70;99.90;;;;;;5073186;28;20069;-50
2022/01/10 13:43:43;;;;;;;;;;;7.70;99.90;;;;;;5075776;28;20005;-52
2022/01/10 13:46:16;;;;;;;;;;;7.70;99.90;;;;;;5075644;28;19913;-51
2022/01/10 13:48:44;;;;;;;;;;;7.90;99.90;;;;;;5076167;28;19913;-52
2022/01/10 13:51:20;;;;;;;;;;;8.00;99.90;;;;;;5074079;28;20272;-52
2022/01/10 13:53:47;;;;;;;;;;;8.10;99.90;;;;;;5055629;28;19920;-52
2022/01/10 13:56:19;;;;;;;;;;;8.20;99.90;;;;;;5055848;28;19909;-53
2022/01/10 13:58:50;;;;;;;;;;;8.20;99.90;;;;;;5056942;28;20363;-52
2022/01/10 14:01:17;;;;;;;;;;;8.30;99.90;;;;;;5055456;28;20433;-52
2022/01/10 14:03:45;;;;;;;;;;;8.30;99.90;;;;;;5055517;28;19975;-53
2022/01/10 14:06:13;;;;;;;;;;;8.30;99.90;;;;;;5056642;28;19944;-54
2022/01/10 14:08:40;;;;;;;;;;;8.40;99.90;;;;;;5055294;28;19916;-52
2022/01/10 14:11:06;;;;;;;;;;;8.50;99.90;;;;;;5055779;28;19908;-54
2022/01/10 14:13:33;;;;;;;;;;;8.80;99.90;;;;;;5055790;28;20427;-54
2022/01/10 14:15:58;;;;;;;;;;;8.90;99.90;;;;;;5069975;28;19919;-54
2022/01/10 14:18:24;;;;;;;;;;;9.10;99.90;;;;;;5075671;28;19999;-54
2022/01/10 14:20:49;;;;;;;;;;;9.20;99.90;;;;;;5075096;28;19947;-53
2022/01/10 14:23:17;;;;;;;;;;;9.30;99.90;;;;;;5075325;28;19915;-54
2022/01/10 14:25:43;;;;;;;;;;;9.40;99.90;;;;;;5072963;28;20007;-54
2022/01/10 14:28:09;;;;;;;;;;;9.40;99.90;;;;;;5074887;28;19962;-54
2022/01/10 14:30:34;;;;;;;;;;;9.50;99.90;;;;;;5075386;28;19951;-55
2022/01/10 14:33:01;;;;;;;;;;;9.50;99.90;;;;;;5075261;28;19908;-54
2022/01/10 14:35:27;;;;;;;;;;;9.50;99.90;;;;;;5064761;28;19912;-53